createdAt,value
2022-12-19T00:01:45.428Z,47.17
2022-12-19T00:08:59.675Z,46.45
2022-12-19T00:32:34.058Z,44.60
2022-12-19T00:47:25.136Z,42.60
2022-12-19T00:50:29.134Z,43.78
2022-12-19T00:53:32.756Z,43.17
2022-12-19T00:56:38.464Z,42.28
2022-12-19T00:59:44.122Z,42.95
2022-12-19T01:02:48.127Z,43.58
2022-12-19T01:05:53.894Z,43.53
2022-12-19T01:08:59.081Z,44.13
2022-12-19T01:12:25.281Z,42.47
2022-12-19T01:15:29.327Z,42.30
2022-12-19T01:33:28.210Z,43.72
2022-12-19T01:48:57.156Z,42.47
2022-12-19T02:16:18.884Z,40.72
2022-12-19T02:20:42.362Z,41.72
2022-12-19T02:28:42.721Z,43.58
2022-12-19T02:45:41.823Z,41.55
2022-12-19T02:49:30.564Z,42.65
2022-12-19T03:01:56.981Z,40.90
2022-12-19T03:35:49.493Z,40.35
2022-12-19T04:22:07.723Z,39.72
2022-12-19T05:06:50.735Z,40.42
2022-12-19T05:09:55.671Z,40.50
2022-12-19T05:13:00.900Z,38.95
2022-12-19T05:16:09.314Z,39.90
2022-12-19T05:19:14.670Z,41.00
2022-12-19T05:22:20.963Z,40.25
2022-12-19T05:25:25.967Z,39.80
2022-12-19T05:28:33.438Z,40.97
2022-12-19T05:32:16.667Z,40.12
2022-12-19T05:35:30.491Z,38.67
2022-12-19T05:42:18.614Z,41.10
2022-12-19T05:45:48.378Z,38.75
2022-12-19T05:52:53.336Z,41.72
2022-12-19T06:00:11.662Z,40.10
2022-12-19T06:06:53.641Z,40.17
2022-12-19T06:14:01.463Z,42.25
2022-12-19T06:17:35.195Z,40.90
2022-12-19T06:20:45.862Z,42.08
2022-12-19T06:23:52.372Z,42.45
2022-12-19T06:26:57.683Z,41.33
2022-12-19T06:30:03.414Z,42.50
2022-12-19T06:33:15.641Z,44.35
2022-12-19T06:36:27.882Z,41.72
2022-12-19T06:39:44.777Z,41.92
2022-12-19T06:43:24.924Z,41.50
2022-12-19T06:46:29.583Z,41.45
2022-12-19T06:53:28.356Z,41.85
2022-12-19T07:04:52.889Z,42.42
2022-12-19T07:16:20.576Z,39.95
2022-12-19T07:19:25.574Z,39.67
2022-12-19T07:30:14.261Z,38.97
2022-12-19T07:33:27.204Z,38.38
2022-12-19T07:55:56.541Z,27.92
2022-12-19T07:58:59.282Z,28.17
2022-12-19T08:02:01.830Z,25.73
2022-12-19T08:05:05.992Z,25.95
2022-12-19T08:08:10.244Z,26.02
2022-12-19T08:11:18.859Z,26.70
2022-12-19T08:14:21.613Z,26.65
2022-12-19T08:17:24.841Z,28.75
2022-12-19T08:20:27.227Z,28.62
2022-12-19T08:23:29.963Z,28.85
2022-12-19T08:26:40.598Z,30.52
2022-12-19T08:29:49.608Z,32.25
2022-12-19T08:32:51.809Z,31.35
2022-12-19T08:35:57.410Z,31.87
2022-12-19T08:39:00.342Z,33.00
2022-12-19T08:42:04.317Z,32.55
2022-12-19T08:45:07.905Z,32.58
2022-12-19T08:48:11.060Z,31.12
2022-12-19T08:59:04.856Z,26.67
2022-12-19T09:02:17.759Z,26.40
2022-12-19T09:06:01.224Z,24.10
2022-12-19T09:09:20.267Z,22.67
2022-12-19T09:12:26.775Z,23.10
2022-12-19T09:15:45.566Z,23.23
2022-12-19T09:18:51.597Z,22.48
2022-12-19T09:21:53.997Z,24.00
2022-12-19T09:24:57.983Z,22.62
2022-12-19T09:28:26.805Z,23.10
2022-12-19T09:31:29.502Z,22.42
2022-12-19T09:34:48.745Z,22.70
2022-12-19T09:37:56.645Z,23.33
2022-12-19T09:41:08.606Z,22.90
2022-12-19T09:44:26.020Z,23.48
2022-12-19T09:47:36.299Z,23.48
2022-12-19T09:51:24.521Z,23.38
2022-12-19T09:55:05.983Z,22.13
2022-12-19T09:58:32.569Z,23.23
2022-12-19T10:02:02.465Z,21.70
2022-12-19T10:05:39.781Z,24.10
2022-12-19T10:09:28.509Z,25.00
2022-12-19T10:12:45.532Z,22.80
2022-12-19T10:16:19.463Z,23.15
2022-12-19T10:19:34.807Z,23.42
2022-12-19T10:23:14.214Z,22.23
2022-12-19T10:26:23.526Z,23.25
2022-12-19T10:29:59.387Z,24.65
2022-12-19T10:33:18.324Z,22.90
2022-12-19T10:36:42.306Z,23.62
2022-12-19T10:40:27.695Z,23.10
2022-12-19T10:58:51.579Z,21.92
2022-12-19T11:02:28.738Z,23.05
2022-12-19T11:05:43.472Z,23.87
2022-12-19T11:09:23.995Z,22.58
2022-12-19T11:18:27.429Z,23.20
2022-12-19T11:29:31.407Z,22.65
2022-12-19T11:29:37.218Z,22.45
2022-12-19T11:30:44.326Z,23.27
2022-12-19T11:47:57.502Z,22.02
2022-12-19T11:51:18.991Z,22.95
2022-12-19T12:02:59.898Z,23.00
2022-12-19T12:06:15.739Z,23.75
2022-12-19T12:13:27.109Z,22.85
